Time;durP1;ratioP1;P1;durP2;ratioP2;P2;SDS_P1;SDS_P2;PMS_P1;PMS_P2;Temp;Humidity;BMP_temperature;BMP_pressure;BME280_temperature;BME280_humidity;BME280_pressure;Samples;Min_cycle;Max_cycle;Signal;HPM_P1;HPM_P2
2022/06/15 00:06:16;;;;;;;3.17;1.87;;;;;;;13.79;67.63;100963.78;18357919;32;20097;-65
2022/06/15 00:16:20;;;;;;;3.90;2.20;;;;;;;13.51;68.32;100980.53;18357045;32;20149;-65
2022/06/15 00:26:25;;;;;;;4.40;2.20;;;;;;;13.13;71.26;100992.00;18356997;31;20115;-65
2022/06/15 00:36:29;;;;;;;5.15;2.28;;;;;;;13.01;71.46;100991.19;18356676;32;20165;-65
2022/06/15 00:46:37;;;;;;;4.45;2.22;;;;;;;12.28;72.72;101004.38;18355649;31;20540;-65
2022/06/15 00:56:41;;;;;;;4.00;2.33;;;;;;;12.52;72.07;101001.75;18356893;32;20118;-65
2022/06/15 01:06:49;;;;;;;4.28;2.33;;;;;;;12.56;71.79;101006.09;18356081;32;20093;-65
2022/06/15 01:17:01;;;;;;;5.80;2.22;;;;;;;12.30;73.21;100993.91;18354187;32;20093;-65
2022/06/15 01:27:35;;;;;;;4.53;2.47;;;;;;;13.35;69.16;100987.56;18354140;32;20602;-65
2022/06/15 01:37:43;;;;;;;2.97;1.90;;;;;;;12.86;70.95;100994.72;18353716;32;20094;-65
2022/06/15 01:47:49;;;;;;;4.20;2.58;;;;;;;13.39;68.12;100998.91;18353065;32;20106;-64
2022/06/15 01:57:55;;;;;;;3.58;2.20;;;;;;;13.20;68.61;101004.22;18360599;32;20119;-65
2022/06/15 02:08:03;;;;;;;3.58;1.90;;;;;;;12.71;70.73;100997.34;18362230;32;20137;-64
2022/06/15 02:18:11;;;;;;;3.70;2.30;;;;;;;12.34;71.53;101004.38;18361703;31;20085;-65
2022/06/15 02:28:15;;;;;;;3.95;2.17;;;;;;;12.66;70.01;101004.34;18361506;32;20085;-64
2022/06/15 02:38:20;;;;;;;7.25;2.30;;;;;;;12.45;71.31;101011.38;18361204;32;20097;-64
2022/06/15 02:48:23;;;;;;;4.45;2.03;;;;;;;12.03;73.54;101014.81;18360716;32;20101;-65
2022/06/15 02:58:31;;;;;;;4.30;2.35;;;;;;;12.38;71.94;101025.31;18360361;32;20104;-65
2022/06/15 03:08:34;;;;;;;5.75;2.35;;;;;;;11.70;74.00;101026.91;18359798;32;20457;-65
2022/06/15 03:18:38;;;;;;;5.05;2.58;;;;;;;12.40;71.40;101034.94;18359472;32;20343;-65
2022/06/15 03:28:42;;;;;;;4.68;2.45;;;;;;;11.70;75.23;101042.59;18359128;32;20103;-65
2022/06/15 03:38:46;;;;;;;3.83;2.60;;;;;;;11.87;75.41;101040.03;18411565;31;20097;-65
2022/06/15 03:48:49;;;;;;;5.18;2.45;;;;;;;12.27;74.45;101039.28;18358191;32;20659;-65
2022/06/15 03:58:54;;;;;;;4.37;2.78;;;;;;;12.70;73.72;101037.53;18392461;32;20144;-64
2022/06/15 04:08:58;;;;;;;4.68;2.20;;;;;;;13.25;72.54;101048.78;18416943;31;20093;-65
2022/06/15 04:19:04;;;;;;;4.10;2.35;;;;;;;13.62;72.41;101056.56;18406374;31;20109;-65
2022/06/15 04:29:07;;;;;;;2.53;1.70;;;;;;;14.98;67.43;101048.59;18398344;32;20107;-65
2022/06/15 04:39:13;;;;;;;3.28;1.50;;;;;;;16.89;59.47;101043.31;18387659;32;20093;-66
2022/06/15 04:49:16;;;;;;;2.37;1.40;;;;;;;18.69;52.95;101043.00;18385222;32;20172;-67
2022/06/15 04:59:22;;;;;;;2.40;1.30;;;;;;;20.43;46.83;101034.47;18356279;32;20113;-66
2022/06/15 05:09:25;;;;;;;9.05;1.85;;;;;;;20.97;47.53;101031.78;18354819;32;20093;-66
2022/06/15 05:19:30;;;;;;;3.45;1.40;;;;;;;20.93;47.74;101038.97;18354292;32;20112;-66
2022/06/15 05:29:36;;;;;;;3.12;1.20;;;;;;;21.30;46.96;101052.69;18358399;32;20372;-66
2022/06/15 05:39:41;;;;;;;2.87;1.37;;;;;;;22.19;45.04;101052.84;18363260;32;20108;-65
2022/06/15 05:49:44;;;;;;;2.40;1.50;;;;;;;20.68;48.52;101042.44;18362509;32;20112;-66
2022/06/15 05:59:49;;;;;;;1.98;1.30;;;;;;;21.65;46.74;101050.50;18362037;32;20093;-66
2022/06/15 06:09:53;;;;;;;2.30;1.30;;;;;;;20.09;50.85;101057.63;18362043;32;20134;-66
2022/06/15 06:19:57;;;;;;;1.83;1.10;;;;;;;21.37;49.23;101061.28;18354091;32;20425;-65
2022/06/15 06:30:01;;;;;;;2.58;1.45;;;;;;;20.63;50.08;101057.63;18359709;32;20101;-66
2022/06/15 06:40:07;;;;;;;2.95;1.40;;;;;;;21.34;48.88;101062.25;18359001;32;20120;-66
2022/06/15 06:50:11;;;;;;;1.77;1.20;;;;;;;22.97;42.08;101061.13;18359839;32;20112;-66
2022/06/15 07:00:17;;;;;;;2.90;1.20;;;;;;;23.60;35.08;101051.25;18358578;32;20150;-66
2022/06/15 07:10:21;;;;;;;1.80;0.98;;;;;;;23.40;37.48;101045.06;18366079;32;20485;-66
2022/06/15 07:20:27;;;;;;;3.55;1.17;;;;;;;24.34;35.63;101060.22;18397634;31;20096;-66
2022/06/15 07:30:30;;;;;;;3.65;1.40;;;;;;;25.60;32.22;101059.06;18392036;32;20115;-66
2022/06/15 07:40:35;;;;;;;1.77;0.88;;;;;;;26.14;32.63;101047.13;18373698;32;20112;-67
2022/06/15 07:50:45;;;;;;;2.05;1.10;;;;;;;26.12;31.52;101049.06;18372270;31;20089;-66
2022/06/15 08:00:50;;;;;;;3.42;1.08;;;;;;;25.28;31.55;101050.97;18355061;32;20145;-67
2022/06/15 08:10:54;;;;;;;2.97;1.05;;;;;;;26.49;31.75;101029.16;18354878;32;20085;-67
2022/06/15 08:21:00;;;;;;;2.67;1.20;;;;;;;25.65;35.04;101045.44;18399937;32;20132;-67
2022/06/15 08:31:04;;;;;;;2.37;1.02;;;;;;;26.82;31.33;101036.94;18379624;32;20121;-67
2022/06/15 08:41:21;;;;;;;2.50;1.10;;;;;;;25.99;33.74;101037.31;18406397;32;20422;-67
2022/06/15 08:51:31;;;;;;;4.20;1.40;;;;;;;26.11;32.31;101041.97;18419748;32;20488;-66
2022/06/15 09:01:39;;;;;;;1.98;1.37;;;;;;;26.68;29.47;101029.75;18419231;32;20170;-66
2022/06/15 09:12:49;;;;;;;2.65;1.00;;;;;;;25.42;30.92;101031.50;18417993;32;20353;-68
2022/06/15 09:22:25;;;;;;;2.87;1.30;;;;;;;26.25;30.40;101009.09;18365205;32;20147;-66
2022/06/15 09:32:33;;;;;;;3.08;1.08;;;;;;;26.90;26.95;101012.41;18354653;32;20164;-66
2022/06/15 09:42:47;;;;;;;1.87;0.90;;;;;;;27.21;26.06;100994.41;18413466;32;20111;-66
2022/06/15 09:53:02;;;;;;;2.10;1.02;;;;;;;27.73;26.50;100994.72;18415641;32;20089;-67
2022/06/15 10:03:16;;;;;;;2.45;1.00;;;;;;;26.72;28.76;100987.59;18416022;32;20093;-67
2022/06/15 10:13:30;;;;;;;1.75;1.10;;;;;;;28.00;28.45;100979.56;18469438;31;20092;-67
2022/06/15 10:23:40;;;;;;;1.50;0.80;;;;;;;27.12;27.41;100973.53;18364617;32;20470;-67
2022/06/15 10:33:46;;;;;;;1.67;1.00;;;;;;;26.77;30.72;100969.41;18360756;32;20108;-67
2022/06/15 10:43:51;;;;;;;1.08;0.90;;;;;;;27.39;27.05;100954.84;18360313;32;20100;-66
2022/06/15 10:54:18;;;;;;;2.20;0.98;;;;;;;27.18;28.70;100954.41;18360373;31;20111;-66
2022/06/15 11:04:25;;;;;;;1.75;1.10;;;;;;;27.27;27.98;100944.91;18364919;32;20105;-67
2022/06/15 11:14:32;;;;;;;1.20;1.00;;;;;;;28.52;27.89;100940.28;18423099;32;20405;-66
2022/06/15 11:24:41;;;;;;;2.37;1.23;;;;;;;28.56;27.87;100925.69;18456222;31;20116;-67
2022/06/15 11:34:55;;;;;;;2.90;1.40;;;;;;;29.14;25.21;100913.56;18359118;31;20090;-67
2022/06/15 11:44:59;;;;;;;1.85;1.00;;;;;;;28.89;26.78;100913.53;18357108;31;20093;-66
2022/06/15 11:55:17;;;;;;;4.50;1.15;;;;;;;28.96;24.78;100902.34;18357133;32;20097;-67
2022/06/15 12:05:27;;;;;;;2.55;0.90;;;;;;;29.82;25.97;100894.25;18449995;31;20125;-67
2022/06/15 12:15:35;;;;;;;2.07;0.90;;;;;;;29.22;25.63;100897.75;18419492;31;20126;-67
2022/06/15 12:25:44;;;;;;;1.60;0.90;;;;;;;29.46;24.70;100889.72;18420994;32;20132;-67
2022/06/15 12:35:50;;;;;;;2.08;0.90;;;;;;;30.10;25.62;100878.72;18472845;31;20100;-67
2022/06/15 12:46:02;;;;;;;1.60;1.00;;;;;;;30.28;25.59;100862.94;18419775;32;20104;-67
2022/06/15 12:56:17;;;;;;;1.92;0.88;;;;;;;29.92;23.18;100857.59;18420890;32;20085;-67
2022/06/15 13:06:27;;;;;;;2.67;0.80;;;;;;;29.97;24.78;100858.09;18419034;32;20089;-66
2022/06/15 13:16:34;;;;;;;1.27;0.90;;;;;;;29.34;25.41;100855.66;18471362;31;20113;-66
2022/06/15 13:26:55;;;;;;;3.67;1.08;;;;;;;30.55;23.37;100848.25;18410784;32;20123;-66
2022/06/15 13:37:24;;;;;;;1.00;0.90;;;;;;;30.24;24.89;100838.09;18416639;32;20105;-66
2022/06/15 13:47:38;;;;;;;1.33;1.05;;;;;;;29.53;25.87;100841.69;18469864;31;20148;-66
2022/06/15 13:57:56;;;;;;;1.48;0.90;;;;;;;29.49;24.80;100841.06;18425959;32;20133;-65
2022/06/15 14:08:13;;;;;;;1.17;0.82;;;;;;;29.08;24.68;100824.38;18425275;32;20590;-65
2022/06/15 14:18:37;;;;;;;1.62;0.80;;;;;;;29.16;23.82;100826.47;18424574;31;20103;-66
2022/06/15 14:28:50;;;;;;;0.98;0.77;;;;;;;28.98;24.82;100807.22;18424567;32;20097;-65
2022/06/15 14:38:57;;;;;;;0.90;0.80;;;;;;;28.52;24.41;100809.59;18421769;32;20099;-65
2022/06/15 14:49:01;;;;;;;0.60;0.60;;;;;;;28.98;23.94;100799.16;18421561;32;20093;-65
2022/06/15 14:59:10;;;;;;;1.40;0.70;;;;;;;28.78;23.49;100793.37;18474293;31;20332;-65
2022/06/15 15:09:14;;;;;;;1.40;0.80;;;;;;;29.18;23.12;100786.06;18421954;32;20089;-65
2022/06/15 15:19:30;;;;;;;2.45;0.52;;;;;;;29.15;22.56;100773.72;18422669;31;20357;-65
2022/06/15 15:39:57;;;;;;;1.75;0.82;;;;;;;28.88;23.45;100773.91;18382621;32;20107;-65
2022/06/15 15:50:02;;;;;;;2.30;0.65;;;;;;;29.11;22.86;100768.69;18357074;32;20098;-65
2022/06/15 16:00:08;;;;;;;1.45;0.70;;;;;;;28.96;24.31;100757.25;18356849;32;20112;-65
2022/06/15 16:10:25;;;;;;;1.05;0.50;;;;;;;28.73;22.80;100757.94;18350442;31;159756;-66
2022/06/15 16:20:31;;;;;;;0.65;0.50;;;;;;;28.41;23.75;100760.31;18401789;32;20093;-65
2022/06/15 16:30:36;;;;;;;0.50;0.50;;;;;;;28.64;25.04;100743.34;18417912;32;20088;-65
2022/06/15 16:40:39;;;;;;;0.50;0.50;;;;;;;28.55;23.75;100741.38;18419671;32;20657;-66
2022/06/15 16:50:44;;;;;;;1.73;0.80;;;;;;;27.97;24.54;100739.19;18418867;32;20111;-65
2022/06/15 17:00:47;;;;;;;2.70;0.68;;;;;;;28.06;23.70;100746.56;18417898;32;20101;-66
2022/06/15 17:10:52;;;;;;;1.00;0.65;;;;;;;28.04;25.15;100727.06;18417272;32;20702;-66
2022/06/15 17:20:56;;;;;;;2.08;0.60;;;;;;;27.77;26.23;100733.41;18417465;32;20361;-65
2022/06/15 17:31:00;;;;;;;1.70;0.80;;;;;;;27.41;26.73;100716.16;18425691;32;20081;-66
2022/06/15 17:41:04;;;;;;;1.02;0.62;;;;;;;27.16;29.13;100712.50;18425935;32;20149;-65
2022/06/15 17:51:09;;;;;;;1.80;1.00;;;;;;;27.10;29.15;100721.81;18436915;31;20097;-65
2022/06/15 18:01:13;;;;;;;5.45;1.40;;;;;;;26.32;32.70;100723.25;18425343;32;20467;-65
2022/06/15 18:11:18;;;;;;;4.97;1.85;;;;;;;25.26;38.27;100734.06;18425113;32;20096;-65
2022/06/15 18:21:24;;;;;;;4.65;1.98;;;;;;;24.77;40.80;100736.81;18385538;32;20100;-65
2022/06/15 18:31:34;;;;;;;3.53;0.90;;;;;;;24.00;44.80;100735.66;18418847;32;20338;-65
2022/06/15 18:41:39;;;;;;;3.22;1.10;;;;;;;23.09;45.00;100739.34;18357888;32;20089;-65
2022/06/15 18:51:43;;;;;;;1.25;0.82;;;;;;;22.38;45.16;100741.78;18406562;32;20107;-65
2022/06/15 19:01:47;;;;;;;1.98;1.00;;;;;;;21.55;47.62;100749.81;18423895;32;20077;-65
2022/06/15 19:11:51;;;;;;;1.62;0.98;;;;;;;20.90;48.68;100750.72;18475237;31;20136;-65
2022/06/15 19:21:55;;;;;;;2.08;1.20;;;;;;;20.83;49.00;100764.28;18421843;32;20164;-66
2022/06/15 19:32:03;;;;;;;1.20;1.10;;;;;;;20.33;51.72;100776.72;18423335;32;20090;-65
2022/06/15 19:42:07;;;;;;;2.22;1.10;;;;;;;19.78;52.38;100799.81;18421931;32;20096;-65
2022/06/15 19:52:12;;;;;;;2.12;1.40;;;;;;;19.52;53.58;100806.84;18418604;32;20416;-65
2022/06/15 20:02:16;;;;;;;10.60;2.40;;;;;;;18.90;56.65;100808.81;18378119;32;20093;-65
2022/06/15 20:12:21;;;;;;;6.32;2.12;;;;;;;18.83;57.08;100808.12;18409415;31;20105;-65
2022/06/15 20:22:27;;;;;;;3.35;1.80;;;;;;;17.90;61.77;100815.97;18353180;32;20093;-65
2022/06/15 20:32:32;;;;;;;3.35;1.58;;;;;;;18.30;59.08;100819.31;18408050;31;20358;-65
2022/06/15 20:42:36;;;;;;;2.70;1.75;;;;;;;18.16;58.02;100811.78;18355796;32;20378;-65
2022/06/15 20:53:00;;;;;;;1.70;1.40;;;;;;;17.44;61.74;100826.78;18356436;32;20589;-65
2022/06/15 21:03:04;;;;;;;3.30;1.55;;;;;;;17.56;60.77;100824.75;18354883;32;20089;-65
2022/06/15 21:23:26;;;;;;;2.00;1.37;;;;;;;16.32;63.13;100831.78;18217569;32;20159;-65
2022/06/15 21:33:31;;;;;;;2.00;1.50;;;;;;;17.04;60.88;100828.56;18217551;32;20110;-65
2022/06/15 21:43:35;;;;;;;2.83;1.50;;;;;;;16.64;62.45;100826.75;18205346;32;20744;-65
2022/06/15 21:53:46;;;;;;;4.18;1.70;;;;;;;16.30;64.36;100832.69;18241810;32;20093;-65
2022/06/15 22:03:50;;;;;;;2.67;1.87;;;;;;;16.22;65.07;100831.09;18350547;32;20108;-65
2022/06/15 22:13:55;;;;;;;2.87;1.60;;;;;;;15.75;66.65;100830.16;18356654;32;20470;-65
2022/06/15 22:23:58;;;;;;;2.08;1.75;;;;;;;15.30;67.14;100833.47;18361126;32;20107;-65
2022/06/15 22:34:03;;;;;;;2.90;1.65;;;;;;;15.47;66.55;100839.34;18360943;32;20109;-64
2022/06/15 22:44:09;;;;;;;1.83;1.50;;;;;;;14.67;69.63;100854.44;18366579;32;20097;-65
2022/06/15 22:54:14;;;;;;;3.12;2.00;;;;;;;14.59;69.52;100851.00;18421298;32;20081;-64
2022/06/15 23:04:18;;;;;;;4.43;2.08;;;;;;;14.94;68.62;100850.63;18424295;32;20110;-64
2022/06/15 23:14:23;;;;;;;3.28;1.98;;;;;;;14.41;70.42;100858.22;18423818;32;20107;-64
2022/06/15 23:24:26;;;;;;;2.70;1.83;;;;;;;14.67;69.93;100862.31;18424140;32;20093;-64
2022/06/15 23:34:31;;;;;;;4.95;2.30;;;;;;;14.46;70.58;100859.03;18423252;32;20149;-64
2022/06/15 23:44:38;;;;;;;3.53;1.98;;;;;;;13.66;73.83;100861.53;18422814;32;20100;-65
2022/06/15 23:54:43;;;;;;;4.15;2.10;;;;;;;14.56;70.16;100860.69;18422334;32;20170;-64
